Time;durP1;ratioP1;P1;durP2;ratioP2;P2;SDS_P1;SDS_P2;PMS_P1;PMS_P2;Temp;Humidity;BMP_temperature;BMP_pressure;BME280_temperature;BME280_humidity;BME280_pressure;Samples;Min_cycle;Max_cycle;Signal;HPM_P1;HPM_P2
2022/04/25 00:01:20;;;;;;;19.80;12.93;;;9.10;99.90;;;;;;4186222;28;20045;-76
2022/04/25 00:03:22;;;;;;;15.32;13.07;;;9.10;99.90;;;;;;4201013;28;20064;-76
2022/04/25 00:05:24;;;;;;;13.63;12.20;;;9.10;99.90;;;;;;4200445;28;20091;-76
2022/04/25 00:07:26;;;;;;;15.30;13.25;;;9.10;99.90;;;;;;4199826;28;20049;-76
2022/04/25 00:09:28;;;;;;;16.38;12.30;;;9.10;99.90;;;;;;4194652;28;20092;-77
2022/04/25 00:11:30;;;;;;;19.88;13.82;;;9.10;99.90;;;;;;4177178;28;20057;-76
2022/04/25 00:13:32;;;;;;;15.20;12.48;;;9.10;99.90;;;;;;4190605;28;20104;-76
2022/04/25 00:15:34;;;;;;;15.20;12.23;;;9.10;99.90;;;;;;4181619;28;20045;-76
2022/04/25 00:17:36;;;;;;;15.43;13.40;;;9.10;99.90;;;;;;4203833;28;20057;-76
2022/04/25 00:19:38;;;;;;;17.73;12.95;;;9.10;99.90;;;;;;4209888;28;20175;-76
2022/04/25 00:21:39;;;;;;;17.75;13.95;;;9.10;99.90;;;;;;4186643;28;20076;-76
2022/04/25 00:23:41;;;;;;;16.58;14.10;;;9.00;99.90;;;;;;4183717;28;20066;-75
2022/04/25 00:25:43;;;;;;;18.88;15.45;;;9.10;99.90;;;;;;4185345;28;20064;-76
2022/04/25 00:27:45;;;;;;;21.25;15.50;;;9.10;99.90;;;;;;4189983;28;20073;-76
2022/04/25 00:29:46;;;;;;;19.75;16.02;;;9.10;99.90;;;;;;4204775;28;20061;-76
2022/04/25 00:31:48;;;;;;;21.33;17.92;;;9.10;99.90;;;;;;4177324;28;20128;-76
2022/04/25 00:33:50;;;;;;;21.90;17.58;;;9.10;99.90;;;;;;4186398;28;20151;-76
2022/04/25 00:35:52;;;;;;;22.60;17.80;;;9.10;99.90;;;;;;4185788;28;20045;-76
2022/04/25 00:37:55;;;;;;;22.10;18.08;;;9.10;99.90;;;;;;4173773;28;20156;-76
2022/04/25 00:39:56;;;;;;;25.23;19.42;;;9.10;99.90;;;;;;4179972;28;20116;-76
2022/04/25 00:41:58;;;;;;;26.92;20.17;;;9.10;99.90;;;;;;4209452;28;20064;-76
2022/04/25 00:44:00;;;;;;;25.48;19.08;;;9.10;99.90;;;;;;4185194;28;20072;-75
2022/04/25 00:46:02;;;;;;;26.20;20.45;;;9.10;99.90;;;;;;4185392;28;20140;-75
2022/04/25 00:48:05;;;;;;;25.80;19.80;;;9.00;99.90;;;;;;4186877;28;20064;-75
2022/04/25 00:50:08;;;;;;;29.27;22.10;;;9.00;99.90;;;;;;4195167;28;20041;-75
2022/04/25 00:52:10;;;;;;;28.23;21.38;;;9.00;99.90;;;;;;4187948;28;20061;-75
2022/04/25 00:54:11;;;;;;;30.40;21.70;;;9.00;99.90;;;;;;4218053;28;20138;-76
2022/04/25 00:56:15;;;;;;;30.10;21.30;;;9.00;99.90;;;;;;4215868;28;20176;-75
2022/04/25 00:58:18;;;;;;;28.50;22.33;;;9.00;99.90;;;;;;4193381;28;20194;-75
2022/04/25 01:00:19;;;;;;;34.70;23.67;;;9.00;99.90;;;;;;4188726;28;20053;-75
2022/04/25 01:02:21;;;;;;;31.25;22.63;;;9.00;99.90;;;;;;4190866;28;20108;-75
2022/04/25 01:04:24;;;;;;;27.13;21.55;;;9.00;99.90;;;;;;4187821;28;20516;-75
2022/04/25 01:06:26;;;;;;;37.28;27.17;;;9.00;99.90;;;;;;4182769;28;20789;-75
2022/04/25 01:08:27;;;;;;;37.58;26.20;;;9.00;99.90;;;;;;4194468;28;20049;-75
2022/04/25 01:10:29;;;;;;;43.85;30.08;;;8.90;99.90;;;;;;4190136;28;20057;-74
2022/04/25 01:12:31;;;;;;;37.80;26.33;;;8.90;99.90;;;;;;4182765;28;20064;-75
2022/04/25 01:14:33;;;;;;;33.35;24.80;;;8.90;99.90;;;;;;4200488;28;20068;-75
2022/04/25 01:16:35;;;;;;;29.95;22.92;;;8.90;99.90;;;;;;4200018;28;20087;-75
2022/04/25 01:18:37;;;;;;;27.85;22.17;;;8.90;99.90;;;;;;4185605;28;20060;-75
2022/04/25 01:20:39;;;;;;;29.48;21.77;;;8.80;99.90;;;;;;4184980;28;20099;-76
2022/04/25 01:22:46;;;;;;;27.33;20.92;;;8.80;99.90;;;;;;4206277;28;20059;-75
2022/04/25 01:27:18;;;;;;;27.30;21.02;;;8.80;99.90;;;;;;4201908;28;20103;-74
2022/04/25 01:29:20;;;;;;;26.88;21.17;;;8.80;99.90;;;;;;4176616;28;20066;-75
2022/04/25 01:31:22;;;;;;;25.85;20.20;;;8.80;99.90;;;;;;4185097;28;20049;-75
2022/04/25 01:33:24;;;;;;;26.52;20.85;;;8.80;99.90;;;;;;4202331;28;20075;-75
2022/04/25 01:35:26;;;;;;;25.55;19.92;;;8.80;99.90;;;;;;4180299;28;20049;-75
2022/04/25 01:37:28;;;;;;;27.27;20.65;;;8.80;99.90;;;;;;4183742;28;20053;-74
2022/04/25 01:39:30;;;;;;;27.30;21.98;;;8.80;99.90;;;;;;4199781;28;20057;-74
2022/04/25 01:41:31;;;;;;;30.88;23.35;;;8.70;99.90;;;;;;4185555;28;20068;-76
2022/04/25 01:43:37;;;;;;;26.45;21.50;;;8.70;99.90;;;;;;4195285;28;20101;-75
2022/04/25 01:45:42;;;;;;;28.50;21.10;;;8.80;99.90;;;;;;4186238;28;20149;-74
2022/04/25 01:47:44;;;;;;;34.65;23.88;;;8.70;99.90;;;;;;4193607;28;20067;-74
2022/04/25 01:49:46;;;;;;;30.45;22.25;;;8.70;99.90;;;;;;4213483;28;20068;-74
2022/04/25 01:51:48;;;;;;;32.17;23.83;;;8.70;99.90;;;;;;4179636;28;20045;-74
2022/04/25 01:53:50;;;;;;;30.98;23.83;;;8.60;99.90;;;;;;4186204;28;20061;-73
2022/04/25 01:55:51;;;;;;;27.77;22.58;;;8.60;99.90;;;;;;4207747;28;20065;-75
2022/04/25 01:57:53;;;;;;;31.05;22.92;;;8.60;99.90;;;;;;4207408;28;20068;-75
2022/04/25 01:59:55;;;;;;;35.03;24.05;;;8.60;99.90;;;;;;4196571;28;20792;-74
2022/04/25 02:01:59;;;;;;;45.38;27.00;;;8.50;99.90;;;;;;4184463;28;20174;-74
2022/04/25 02:04:36;;;;;;;32.22;23.50;;;8.50;99.90;;;;;;4184626;28;20065;-74
2022/04/25 02:09:45;;;;;;;26.15;20.10;;;8.40;99.90;;;;;;4189114;28;20057;-75
2022/04/25 02:11:47;;;;;;;27.77;20.70;;;8.40;99.90;;;;;;4183139;28;20171;-74
2022/04/25 02:13:51;;;;;;;25.73;19.40;;;8.30;99.90;;;;;;4180151;28;20093;-74
2022/04/25 02:15:53;;;;;;;27.17;20.48;;;8.30;99.90;;;;;;4205142;28;20059;-74
2022/04/25 02:17:54;;;;;;;26.13;20.50;;;8.30;99.90;;;;;;4179266;28;20057;-74
2022/04/25 02:19:56;;;;;;;29.83;21.77;;;8.30;99.90;;;;;;4183954;28;20089;-74
2022/04/25 02:21:58;;;;;;;29.10;23.05;;;8.20;99.90;;;;;;4186513;28;20070;-74
2022/04/25 02:24:00;;;;;;;29.42;22.63;;;8.20;99.90;;;;;;4187045;28;20050;-74
2022/04/25 02:26:02;;;;;;;27.40;20.88;;;8.20;99.90;;;;;;4179466;28;20668;-74
2022/04/25 02:28:03;;;;;;;27.92;22.10;;;8.10;99.90;;;;;;4208628;28;20083;-75
2022/04/25 02:30:06;;;;;;;30.77;23.10;;;8.10;99.90;;;;;;4193778;28;20115;-74
2022/04/25 02:32:12;;;;;;;28.85;22.65;;;8.10;99.90;;;;;;4192342;28;20053;-73
2022/04/25 02:34:14;;;;;;;35.95;26.35;;;8.00;99.90;;;;;;4196770;28;21220;-74
2022/04/25 02:36:16;;;;;;;35.03;25.38;;;8.00;99.90;;;;;;4192984;28;20068;-74
2022/04/25 02:38:17;;;;;;;46.20;31.55;;;7.90;99.90;;;;;;4198579;28;20101;-74
2022/04/25 02:40:19;;;;;;;34.50;25.73;;;7.90;99.90;;;;;;4193374;28;20096;-74
2022/04/25 02:42:21;;;;;;;38.90;26.65;;;7.80;99.90;;;;;;4206518;28;20067;-75
2022/04/25 02:44:23;;;;;;;35.53;24.40;;;7.80;99.90;;;;;;4187235;28;20049;-74
2022/04/25 02:46:25;;;;;;;33.80;24.27;;;7.80;99.90;;;;;;4201784;28;20060;-74
2022/04/25 02:48:26;;;;;;;31.88;23.88;;;7.70;99.90;;;;;;4192699;28;20610;-74
2022/04/25 02:50:28;;;;;;;32.88;25.17;;;7.70;99.90;;;;;;4187156;28;20061;-74
2022/04/25 02:52:30;;;;;;;30.92;23.92;;;7.70;99.90;;;;;;4181355;28;20156;-74
2022/04/25 02:54:32;;;;;;;37.15;26.00;;;7.70;99.90;;;;;;4195217;28;20100;-74
2022/04/25 02:56:35;;;;;;;34.35;26.08;;;7.60;99.90;;;;;;4199163;28;20078;-74
2022/04/25 02:58:41;;;;;;;30.65;24.92;;;7.70;99.90;;;;;;4197313;28;20091;-74
2022/04/25 03:00:45;;;;;;;35.90;25.73;;;7.70;99.90;;;;;;4191823;28;20721;-74
2022/04/25 03:02:47;;;;;;;37.55;25.67;;;7.60;99.90;;;;;;4190572;28;20930;-74
2022/04/25 03:04:49;;;;;;;33.75;25.08;;;7.70;99.90;;;;;;4191340;28;20143;-74
2022/04/25 03:06:51;;;;;;;34.30;23.77;;;7.60;99.90;;;;;;4193599;28;20057;-74
2022/04/25 03:08:52;;;;;;;35.15;24.95;;;7.60;99.90;;;;;;4193266;28;20147;-74
2022/04/25 03:10:54;;;;;;;30.80;23.83;;;7.60;99.90;;;;;;4182803;28;20041;-74
2022/04/25 03:12:56;;;;;;;30.42;23.20;;;7.60;99.90;;;;;;4192667;28;20165;-74
2022/04/25 03:14:58;;;;;;;33.95;23.95;;;7.60;99.90;;;;;;4181614;28;20148;-76
2022/04/25 03:17:00;;;;;;;31.17;22.77;;;7.60;99.90;;;;;;4194902;28;20065;-75
2022/04/25 03:19:01;;;;;;;30.85;23.88;;;7.60;99.90;;;;;;4206529;28;20097;-74
2022/04/25 03:21:04;;;;;;;30.58;22.50;;;7.60;99.90;;;;;;4194960;28;20148;-75
2022/04/25 03:23:06;;;;;;;34.00;22.98;;;7.60;99.90;;;;;;4181503;28;20073;-74
2022/04/25 03:25:07;;;;;;;31.25;21.92;;;7.60;99.90;;;;;;4196698;28;20072;-75
2022/04/25 03:27:09;;;;;;;31.25;21.98;;;7.60;99.90;;;;;;4179029;28;20090;-73
2022/04/25 03:29:11;;;;;;;32.20;23.17;;;7.70;99.90;;;;;;4191620;28;20896;-74
2022/04/25 03:31:13;;;;;;;29.20;22.52;;;7.70;99.90;;;;;;4197314;28;20056;-74
2022/04/25 03:33:15;;;;;;;30.05;23.30;;;7.70;99.90;;;;;;4195213;28;20152;-74
2022/04/25 03:35:19;;;;;;;29.70;22.17;;;7.80;99.90;;;;;;4198502;28;20134;-74
2022/04/25 03:37:23;;;;;;;30.33;22.20;;;7.80;99.90;;;;;;4181087;28;20631;-73
2022/04/25 03:39:25;;;;;;;29.30;21.90;;;7.80;99.90;;;;;;4190778;28;20049;-74
2022/04/25 03:41:31;;;;;;;28.35;21.25;;;7.80;99.90;;;;;;4193433;28;20060;-74
2022/04/25 03:43:32;;;;;;;33.25;22.08;;;7.80;99.90;;;;;;4182329;28;20062;-73
2022/04/25 03:45:34;;;;;;;28.40;21.52;;;7.80;99.90;;;;;;4194268;28;20057;-74
2022/04/25 03:47:39;;;;;;;27.40;21.25;;;7.80;99.90;;;;;;4198320;28;20184;-74
2022/04/25 03:49:41;;;;;;;31.40;23.08;;;7.90;99.90;;;;;;4193983;28;20165;-74
2022/04/25 03:51:43;;;;;;;27.55;20.58;;;7.80;99.90;;;;;;4183483;28;20148;-73
2022/04/25 03:53:45;;;;;;;26.73;21.00;;;7.90;99.90;;;;;;4191438;28;20053;-74
2022/04/25 03:58:07;;;;;;;26.77;20.80;;;7.80;99.90;;;;;;4194747;28;20068;-75
2022/04/25 04:00:10;;;;;;;24.50;19.50;;;7.80;99.90;;;;;;4191759;28;20966;-74
2022/04/25 04:02:12;;;;;;;27.25;20.73;;;7.80;99.90;;;;;;4194343;28;20061;-75
2022/04/25 04:04:14;;;;;;;26.10;21.05;;;7.80;99.90;;;;;;4190872;28;20053;-74
2022/04/25 04:06:16;;;;;;;26.35;20.73;;;7.80;99.90;;;;;;4187774;28;20852;-74
2022/04/25 04:08:18;;;;;;;33.47;22.10;;;7.80;99.90;;;;;;4184969;28;20067;-74
2022/04/25 04:10:20;;;;;;;25.27;20.02;;;7.80;99.90;;;;;;4192614;28;20092;-74
2022/04/25 04:12:25;;;;;;;27.70;20.90;;;7.90;99.90;;;;;;4187740;28;20057;-73
2022/04/25 04:14:27;;;;;;;27.35;20.90;;;7.90;99.90;;;;;;4194015;28;20057;-74
2022/04/25 04:16:29;;;;;;;28.00;21.48;;;7.90;99.90;;;;;;4206509;28;20590;-74
2022/04/25 04:18:31;;;;;;;27.77;21.00;;;8.00;99.90;;;;;;4187595;28;20057;-73
2022/04/25 04:20:33;;;;;;;27.98;19.90;;;8.00;99.90;;;;;;4179091;28;20058;-74
2022/04/25 04:22:36;;;;;;;30.55;19.27;;;8.00;99.90;;;;;;4196517;28;20057;-74
2022/04/25 04:24:38;;;;;;;29.23;20.33;;;8.00;99.90;;;;;;4197997;28;20044;-74
2022/04/25 04:26:40;;;;;;;29.70;21.38;;;8.10;99.90;;;;;;4195076;28;20053;-74
2022/04/25 04:28:42;;;;;;;27.50;20.25;;;8.00;99.90;;;;;;4192079;28;20103;-74
2022/04/25 04:30:46;;;;;;;34.58;23.25;;;8.00;99.90;;;;;;4179781;28;20061;-74
2022/04/25 04:32:48;;;;;;;27.80;20.55;;;7.90;99.90;;;;;;4179443;28;20053;-74
2022/04/25 04:34:50;;;;;;;34.92;21.15;;;7.90;99.90;;;;;;4200239;28;20064;-73
2022/04/25 04:36:52;;;;;;;25.95;19.73;;;7.90;99.90;;;;;;4190335;28;20104;-74
2022/04/25 04:38:53;;;;;;;26.88;21.40;;;8.00;99.90;;;;;;4185944;28;20065;-74
2022/04/25 04:40:55;;;;;;;30.90;21.23;;;8.10;99.90;;;;;;4197640;28;20095;-74
2022/04/25 04:42:57;;;;;;;26.42;20.65;;;8.10;99.90;;;;;;4199245;28;20053;-74
2022/04/25 04:44:59;;;;;;;24.63;20.08;;;8.10;99.90;;;;;;4200394;28;20167;-74
2022/04/25 04:47:01;;;;;;;27.98;20.17;;;8.20;99.90;;;;;;4174910;28;20088;-74
2022/04/25 04:49:03;;;;;;;28.42;20.73;;;8.30;99.90;;;;;;4191710;28;20053;-74
2022/04/25 04:51:05;;;;;;;28.10;19.98;;;8.30;99.90;;;;;;4199346;28;20077;-73
2022/04/25 04:53:07;;;;;;;27.42;20.63;;;8.40;99.90;;;;;;4199750;28;20056;-75
2022/04/25 04:55:10;;;;;;;25.55;19.60;;;8.40;99.90;;;;;;4197200;28;20064;-74
2022/04/25 04:57:11;;;;;;;23.00;19.55;;;8.40;99.90;;;;;;4194479;28;20053;-73
2022/04/25 04:59:13;;;;;;;28.25;19.50;;;8.40;99.90;;;;;;4197073;28;20830;-74
2022/04/25 05:01:15;;;;;;;26.92;18.80;;;8.50;99.90;;;;;;4182076;28;20080;-74
2022/04/25 05:03:17;;;;;;;23.65;18.98;;;8.60;99.90;;;;;;4181811;23;20686;-73
2022/04/25 05:05:19;;;;;;;24.48;18.50;;;8.50;99.90;;;;;;4184962;28;20061;-74
2022/04/25 05:07:21;;;;;;;26.50;20.10;;;8.50;99.90;;;;;;4189385;28;20057;-74
2022/04/25 05:09:22;;;;;;;24.98;19.52;;;8.60;99.90;;;;;;4185833;28;20156;-73
2022/04/25 05:11:24;;;;;;;30.65;21.77;;;8.60;99.90;;;;;;4188312;28;20100;-73
2022/04/25 05:13:26;;;;;;;30.55;23.20;;;8.50;99.90;;;;;;4188638;28;20796;-73
2022/04/25 05:15:28;;;;;;;28.95;22.38;;;8.40;99.90;;;;;;4184765;28;20172;-73
2022/04/25 05:17:29;;;;;;;35.67;24.42;;;8.40;99.90;;;;;;4188518;28;20753;-73
2022/04/25 05:19:31;;;;;;;30.70;22.45;;;8.40;99.90;;;;;;4186041;28;20060;-72
2022/04/25 05:21:34;;;;;;;31.25;22.13;;;8.40;99.90;;;;;;4183971;28;20057;-72
2022/04/25 05:23:36;;;;;;;32.35;22.48;;;8.50;99.90;;;;;;4185182;28;20100;-74
2022/04/25 05:25:38;;;;;;;28.83;22.35;;;8.50;99.90;;;;;;4185337;28;20156;-73
2022/04/25 05:27:41;;;;;;;30.60;22.63;;;8.60;99.90;;;;;;4185569;28;20209;-73
2022/04/25 05:29:43;;;;;;;28.98;21.48;;;8.60;99.90;;;;;;4187257;28;20107;-74
2022/04/25 05:31:44;;;;;;;30.83;21.42;;;8.70;99.90;;;;;;4187069;28;20101;-74
2022/04/25 05:33:50;;;;;;;29.98;21.25;;;8.70;99.90;;;;;;4187029;28;20773;-73
2022/04/25 05:35:52;;;;;;;28.38;21.92;;;8.80;99.90;;;;;;4185513;28;20057;-74
2022/04/25 05:37:54;;;;;;;27.13;21.85;;;8.90;99.90;;;;;;4183277;28;20081;-74
2022/04/25 05:39:56;;;;;;;30.77;22.50;;;9.00;99.90;;;;;;4186510;28;20061;-73
2022/04/25 05:41:57;;;;;;;28.42;22.70;;;9.10;99.90;;;;;;4183671;28;20061;-73
2022/04/25 05:43:59;;;;;;;32.80;23.20;;;9.20;99.90;;;;;;4189125;28;20057;-73
2022/04/25 05:46:01;;;;;;;30.48;24.13;;;9.20;99.90;;;;;;4187900;28;20148;-73
2022/04/25 05:51:58;;;;;;;30.55;22.25;;;9.30;99.90;;;;;;4186502;28;20092;-73
2022/04/25 05:52:48;;;;;;;25.77;21.05;;;9.40;99.90;;;;;;4184674;28;20093;-74
2022/04/25 05:54:49;;;;;;;26.63;20.90;;;9.50;99.90;;;;;;4182986;28;20062;-73
2022/04/25 05:56:52;;;;;;;30.27;22.27;;;9.40;99.90;;;;;;4185904;28;20057;-73
2022/04/25 05:58:54;;;;;;;27.58;20.73;;;9.50;99.90;;;;;;4182355;28;20919;-74
2022/04/25 06:00:56;;;;;;;28.00;20.85;;;9.60;99.90;;;;;;4185411;28;20906;-73
2022/04/25 06:02:58;;;;;;;27.52;21.08;;;9.60;99.90;;;;;;4186702;28;20887;-73
2022/04/25 06:05:00;;;;;;;31.25;21.90;;;9.60;99.90;;;;;;4186740;28;20080;-73
2022/04/25 06:07:04;;;;;;;27.60;21.00;;;9.60;99.90;;;;;;4186778;28;20167;-73
2022/04/25 06:09:06;;;;;;;26.80;21.55;;;9.60;99.90;;;;;;4185235;28;20884;-73
2022/04/25 06:11:08;;;;;;;25.90;20.27;;;9.70;99.90;;;;;;4187735;28;20061;-73
2022/04/25 06:13:09;;;;;;;27.95;21.88;;;9.80;99.90;;;;;;4186387;28;20064;-73
2022/04/25 06:15:11;;;;;;;27.20;20.42;;;9.80;99.90;;;;;;4188045;28;20061;-74
2022/04/25 06:17:13;;;;;;;28.45;22.02;;;9.90;99.90;;;;;;4182735;28;20144;-73
2022/04/25 06:19:15;;;;;;;26.80;21.25;;;9.90;99.90;;;;;;4185577;28;20053;-73
2022/04/25 06:21:17;;;;;;;26.05;20.35;;;9.90;99.90;;;;;;4188852;28;20057;-73
2022/04/25 06:23:19;;;;;;;25.80;20.80;;;9.90;99.90;;;;;;4182319;28;20827;-73
2022/04/25 06:25:20;;;;;;;27.17;20.98;;;10.20;99.90;;;;;;4186665;28;20056;-73
2022/04/25 06:27:23;;;;;;;27.10;20.90;;;10.50;99.90;;;;;;4181446;28;20667;-71
2022/04/25 06:29:25;;;;;;;24.85;19.17;;;10.70;99.90;;;;;;4188550;28;20894;-71
2022/04/25 06:31:27;;;;;;;24.45;20.13;;;10.90;99.90;;;;;;4187063;28;20088;-71
2022/04/25 06:33:29;;;;;;;22.42;18.77;;;11.00;99.90;;;;;;4182547;28;20085;-71
2022/04/25 06:35:30;;;;;;;25.77;19.10;;;10.90;99.90;;;;;;4179514;28;20089;-71
2022/04/25 06:37:32;;;;;;;23.38;19.17;;;10.90;99.90;;;;;;4183934;28;20099;-71
2022/04/25 06:39:38;;;;;;;24.58;19.65;;;10.80;99.90;;;;;;4185672;28;20061;-71
2022/04/25 06:41:41;;;;;;;24.20;18.35;;;10.80;99.90;;;;;;4183420;28;20273;-72
2022/04/25 06:43:43;;;;;;;24.85;19.50;;;10.80;99.90;;;;;;4184264;28;20217;-72
2022/04/25 06:45:44;;;;;;;22.10;18.17;;;10.80;99.90;;;;;;4184841;28;20096;-72
2022/04/25 06:47:46;;;;;;;24.35;19.35;;;10.90;99.90;;;;;;4186663;28;20112;-72
2022/04/25 06:49:48;;;;;;;24.13;19.75;;;11.00;99.90;;;;;;4180824;28;20879;-71
2022/04/25 06:51:56;;;;;;;24.67;18.90;;;11.20;99.90;;;;;;4184149;28;20064;-72
2022/04/25 06:53:59;;;;;;;23.80;18.77;;;11.40;99.90;;;;;;4183034;28;20092;-71
2022/04/25 06:56:01;;;;;;;23.20;17.85;;;11.50;99.90;;;;;;4185137;28;20065;-72
2022/04/25 06:58:03;;;;;;;19.90;16.35;;;11.50;99.90;;;;;;4185252;28;20058;-72
2022/04/25 07:00:09;;;;;;;22.50;18.33;;;11.50;99.90;;;;;;4186215;28;20057;-72
2022/04/25 07:02:31;;;;;;;23.20;18.55;;;11.60;99.90;;;;;;4184796;28;20068;-72
2022/04/25 07:04:33;;;;;;;20.65;17.77;;;11.50;99.90;;;;;;4184937;28;20151;-71
2022/04/25 07:06:35;;;;;;;20.67;18.10;;;11.50;99.90;;;;;;4185404;28;20061;-72
2022/04/25 07:08:36;;;;;;;25.48;18.63;;;11.40;99.90;;;;;;4179958;28;20096;-72
2022/04/25 07:10:38;;;;;;;20.05;16.95;;;11.30;99.90;;;;;;4184735;28;20056;-72
2022/04/25 07:12:40;;;;;;;21.58;17.55;;;11.30;99.90;;;;;;4185235;28;20061;-72
2022/04/25 07:14:42;;;;;;;22.55;19.25;;;11.30;99.90;;;;;;4185846;28;20160;-72
2022/04/25 07:16:45;;;;;;;21.52;17.52;;;11.30;99.90;;;;;;4184081;28;20069;-73
2022/04/25 07:18:55;;;;;;;18.20;15.73;;;11.30;99.90;;;;;;4181330;28;20068;-72
2022/04/25 07:20:56;;;;;;;19.15;16.60;;;11.40;99.90;;;;;;4185551;28;20057;-72
2022/04/25 07:30:08;;;;;;;19.42;16.40;;;11.50;99.90;;;;;;4184188;28;20180;-72
2022/04/25 07:32:10;;;;;;;20.42;16.92;;;11.40;99.90;;;;;;4183248;28;20172;-72
2022/04/25 07:34:11;;;;;;;20.73;17.90;;;11.30;99.90;;;;;;4185935;28;20176;-72
2022/04/25 07:36:18;;;;;;;20.63;17.20;;;11.20;99.90;;;;;;4188352;28;20914;-72
2022/04/25 07:38:20;;;;;;;24.15;16.20;;;11.10;99.90;;;;;;4184223;28;20622;-72
2022/04/25 07:40:23;;;;;;;20.75;16.60;;;11.10;99.90;;;;;;4181101;28;20065;-72
2022/04/25 07:42:25;;;;;;;18.63;16.45;;;11.00;99.90;;;;;;4183270;28;20148;-72
2022/04/25 07:44:27;;;;;;;21.20;17.08;;;10.90;99.90;;;;;;4183993;28;20092;-72
2022/04/25 07:46:30;;;;;;;21.15;18.08;;;10.90;99.90;;;;;;4184310;28;20911;-72
2022/04/25 07:48:34;;;;;;;18.60;16.52;;;10.90;99.90;;;;;;4181145;28;20890;-72
2022/04/25 07:50:36;;;;;;;21.55;18.05;;;10.80;99.90;;;;;;4186573;28;20881;-72
2022/04/25 07:52:39;;;;;;;23.40;16.00;;;10.80;99.90;;;;;;4185071;28;20111;-71
2022/04/25 07:54:40;;;;;;;19.08;16.13;;;10.90;99.90;;;;;;4182838;28;20660;-72
2022/04/25 07:56:42;;;;;;;18.95;16.95;;;11.10;99.90;;;;;;4183328;28;20780;-72
2022/04/25 07:58:45;;;;;;;24.80;17.33;;;11.20;99.90;;;;;;4180760;28;20092;-72
2022/04/25 08:00:48;;;;;;;19.60;16.75;;;11.20;99.90;;;;;;4183982;28;20061;-72
2022/04/25 08:02:50;;;;;;;26.27;17.23;;;11.20;99.90;;;;;;4184611;28;20054;-72
2022/04/25 08:04:52;;;;;;;19.92;16.17;;;11.20;99.90;;;;;;4186421;28;20063;-72
2022/04/25 08:06:54;;;;;;;19.25;15.75;;;11.20;99.90;;;;;;4187200;28;20140;-72
2022/04/25 08:08:57;;;;;;;21.80;17.23;;;11.40;99.50;;;;;;4184118;28;20105;-72
2022/04/25 08:10:58;;;;;;;20.15;16.25;;;11.60;99.90;;;;;;4184839;28;20053;-72
2022/04/25 08:20:02;;;;;;;18.23;15.23;;;12.20;97.30;;;;;;4179350;28;20054;-72
2022/04/25 08:22:07;;;;;;;17.90;15.65;;;12.10;97.30;;;;;;4170908;28;20050;-72
2022/04/25 08:24:10;;;;;;;19.83;16.77;;;12.10;96.80;;;;;;4174603;28;20093;-72
2022/04/25 08:26:13;;;;;;;17.85;15.20;;;12.00;97.70;;;;;;4173026;28;20766;-72
2022/04/25 08:28:15;;;;;;;17.95;15.43;;;12.00;98.60;;;;;;4170324;28;20093;-73
2022/04/25 08:30:17;;;;;;;16.63;14.88;;;12.10;98.20;;;;;;4174684;28;20122;-72
2022/04/25 08:32:19;;;;;;;16.73;14.95;;;12.10;98.20;;;;;;4181624;28;20053;-72
2022/04/25 08:34:21;;;;;;;20.42;16.55;;;12.20;97.00;;;;;;4188704;28;20054;-72
2022/04/25 08:36:23;;;;;;;18.60;16.60;;;12.30;96.70;;;;;;4186268;28;20839;-72
2022/04/25 08:38:25;;;;;;;20.60;16.13;;;12.30;95.90;;;;;;4184828;28;20058;-72
2022/04/25 08:40:27;;;;;;;20.05;17.00;;;12.30;96.60;;;;;;4179534;28;20145;-73
2022/04/25 08:42:30;;;;;;;19.65;16.58;;;12.10;97.40;;;;;;4185684;28;20088;-72
2022/04/25 08:44:49;;;;;;;17.33;15.35;;;12.10;98.40;;;;;;4186271;28;20062;-73
2022/04/25 08:46:54;;;;;;;18.83;16.17;;;12.10;98.50;;;;;;4175955;28;20041;-72
2022/04/25 08:48:57;;;;;;;18.95;16.55;;;12.00;98.70;;;;;;4178592;28;20172;-72
2022/04/25 08:51:00;;;;;;;19.70;16.27;;;12.00;98.40;;;;;;4179759;28;20057;-72
2022/04/25 08:53:04;;;;;;;18.13;15.70;;;12.00;98.10;;;;;;4179195;28;20054;-72
2022/04/25 08:55:06;;;;;;;17.80;15.27;;;12.00;98.70;;;;;;4176551;28;20058;-72
2022/04/25 08:57:09;;;;;;;18.23;16.23;;;12.00;98.70;;;;;;4179598;28;20176;-72
2022/04/25 08:59:11;;;;;;;18.83;15.68;;;12.10;99.20;;;;;;4180030;28;20136;-73
2022/04/25 09:01:13;;;;;;;19.10;15.60;;;12.20;96.30;;;;;;4182264;28;20038;-72
2022/04/25 09:03:15;;;;;;;19.27;16.08;;;12.10;96.20;;;;;;4184526;28;20055;-73
2022/04/25 09:05:17;;;;;;;24.25;17.20;;;12.10;95.40;;;;;;4182447;28;20057;-73
2022/04/25 09:07:19;;;;;;;20.33;16.90;;;12.10;96.30;;;;;;4189829;28;20832;-73
2022/04/25 09:09:21;;;;;;;17.52;15.20;;;12.20;96.70;;;;;;4181947;28;20093;-73
2022/04/25 09:13:44;;;;;;;20.73;16.67;;;12.30;96.00;;;;;;4174718;28;20068;-73
2022/04/25 09:15:50;;;;;;;19.63;17.33;;;12.30;95.20;;;;;;4167915;28;20269;-73
2022/04/25 09:17:55;;;;;;;20.75;17.45;;;12.30;95.70;;;;;;4185121;28;20057;-72
2022/04/25 09:19:58;;;;;;;20.77;16.88;;;12.30;95.70;;;;;;4179782;28;20065;-73
2022/04/25 09:22:00;;;;;;;21.13;15.82;;;12.20;95.60;;;;;;4180145;28;20174;-73
2022/04/25 09:24:02;;;;;;;21.80;15.75;;;12.30;95.60;;;;;;4180253;28;20053;-73
2022/04/25 09:26:27;;;;;;;20.67;17.80;;;12.30;96.00;;;;;;4181669;28;20103;-73
2022/04/25 09:28:29;;;;;;;18.30;15.30;;;12.40;95.50;;;;;;4180325;28;20847;-73
2022/04/25 09:30:31;;;;;;;20.40;16.83;;;12.60;94.40;;;;;;4178625;28;20894;-73
2022/04/25 09:32:33;;;;;;;19.90;16.00;;;12.60;95.30;;;;;;4178597;28;20063;-73
2022/04/25 09:36:56;;;;;;;18.90;14.75;;;13.10;95.20;;;;;;4179300;28;20064;-73
2022/04/25 09:38:58;;;;;;;17.10;14.30;;;13.30;93.20;;;;;;4174346;28;20891;-73
2022/04/25 09:41:00;;;;;;;19.63;15.45;;;13.30;92.50;;;;;;4173714;28;20148;-73
2022/04/25 09:43:08;;;;;;;16.75;13.60;;;13.10;93.50;;;;;;4175664;28;20852;-73
2022/04/25 09:45:10;;;;;;;19.90;15.88;;;13.20;93.90;;;;;;4173138;28;20053;-73
2022/04/25 09:47:23;;;;;;;19.20;16.02;;;13.40;94.00;;;;;;4176182;28;20104;-73
2022/04/25 09:49:25;;;;;;;19.90;16.00;;;13.60;93.80;;;;;;4183461;28;20179;-73
2022/04/25 09:51:27;;;;;;;17.50;15.05;;;13.70;92.70;;;;;;4178518;28;20127;-73
2022/04/25 09:53:46;;;;;;;17.98;15.55;;;14.00;92.00;;;;;;4183573;28;20061;-73
2022/04/25 09:55:47;;;;;;;17.58;15.50;;;14.10;90.60;;;;;;4186902;28;20053;-73
2022/04/25 09:57:50;;;;;;;14.55;13.15;;;14.00;90.60;;;;;;4179935;28;20053;-73
2022/04/25 09:59:52;;;;;;;18.50;16.33;;;13.90;91.20;;;;;;4179371;28;20100;-77
2022/04/25 10:02:04;;;;;;;16.33;14.52;;;13.90;91.80;;;;;;4182273;28;20164;-74
2022/04/25 10:04:27;;;;;;;16.58;14.73;;;13.80;91.20;;;;;;4182347;28;20103;-73
2022/04/25 10:06:34;;;;;;;15.95;14.15;;;13.80;91.00;;;;;;4180305;28;20058;-77
2022/04/25 10:08:36;;;;;;;17.45;15.65;;;13.60;90.00;;;;;;4180446;28;20053;-73
2022/04/25 10:10:49;;;;;;;18.20;15.90;;;13.60;90.10;;;;;;4182013;28;20057;-73
2022/04/25 10:12:52;;;;;;;16.35;14.65;;;13.60;90.00;;;;;;4188879;28;20131;-73
2022/04/25 10:14:54;;;;;;;17.73;15.38;;;13.70;90.50;;;;;;4183922;28;20147;-73
2022/04/25 10:16:57;;;;;;;16.00;14.30;;;13.80;90.10;;;;;;4184344;28;20108;-73
2022/04/25 10:19:00;;;;;;;16.48;14.07;;;13.70;88.80;;;;;;4178966;28;20172;-73
2022/04/25 10:21:04;;;;;;;15.85;13.63;;;13.90;89.70;;;;;;4182846;28;20100;-72
2022/04/25 10:23:11;;;;;;;14.02;12.63;;;14.00;85.80;;;;;;4183851;28;20057;-73
2022/04/25 10:25:13;;;;;;;16.05;14.07;;;13.90;86.10;;;;;;4181880;28;20057;-72
2022/04/25 10:27:17;;;;;;;15.32;12.75;;;14.00;85.40;;;;;;4176285;28;20061;-72
2022/04/25 10:29:28;;;;;;;13.45;12.02;;;14.00;84.30;;;;;;4185259;28;20148;-72
2022/04/25 10:31:41;;;;;;;15.48;12.48;;;14.20;86.30;;;;;;4181958;28;20244;-72
2022/04/25 10:34:09;;;;;;;16.73;13.50;;;14.30;85.40;;;;;;4184721;28;20061;-72
2022/04/25 10:36:37;;;;;;;15.85;12.18;;;14.40;87.00;;;;;;4182843;28;20053;-72
2022/04/25 10:38:48;;;;;;;16.15;14.27;;;14.20;86.50;;;;;;4187954;28;20177;-72
2022/04/25 10:46:07;;;;;;;15.90;14.25;;;13.90;89.40;;;;;;4189122;28;20056;-72
2022/04/25 10:48:09;;;;;;;16.02;13.90;;;14.00;88.50;;;;;;4164356;28;20058;-72
2022/04/25 10:50:12;;;;;;;15.70;14.05;;;14.00;89.20;;;;;;4186145;28;20056;-72
2022/04/25 10:52:52;;;;;;;17.15;14.95;;;14.10;89.50;;;;;;4185346;28;21489;-72
2022/04/25 10:55:20;;;;;;;19.20;13.25;;;13.90;88.80;;;;;;4185893;28;20192;-72
2022/04/25 10:57:22;;;;;;;15.35;13.73;;;13.80;90.60;;;;;;4184184;28;20071;-72
2022/04/25 10:59:27;;;;;;;16.45;14.18;;;13.80;90.50;;;;;;4182507;28;20057;-72
2022/04/25 11:01:33;;;;;;;15.23;13.63;;;13.80;89.60;;;;;;4181943;28;20057;-72
2022/04/25 11:03:35;;;;;;;14.68;13.25;;;14.00;90.10;;;;;;4181790;28;20061;-72
2022/04/25 11:05:39;;;;;;;13.98;12.43;;;14.10;87.50;;;;;;4182089;28;20140;-76